Pagina principale
METAR-TAF:

METAR-TAF

Aeroporti :

Pruniers

Romorantin, Francia

latitudine: 47-19N, longitudine: 001-41E, altezza: 85 m

Osservazione

Il bollettino è stato emesso 40 minuti fa, alle 06:00 UTC
Vento 4 kt da nord-est, variando fra nord e est
Temperature 25°C
Umidità 79%
Pressione 1020 hPa
Visibilità 10 km o più
nessuna nube inferiore a 1500 m e nessun cumulonembo

METAR: LFYR 270600Z AUTO 05004KT 010V090 CAVOK 25/21 Q1020 NOSIG

Ora: 08:40 (06:40 UTC)


TAF: mancante

Osservazioni e previsioni meteorologiche di più di 4000 aeroporti (messaggi METAR e TAF).

Le stazioni disponibili sono rappresentate dai dischi gialli e rossi sulla carta.

Puntare il mouse per vedere il nome della stazione.

Clicca sopra per visualizzare le osservazioni e previsioni meteorologiche.

Per cambiare la mappa : fare clic sui pulsanti verdi con una croce nera per ingrandire, il pulsante verde con un trattino per diminuire, o sulla freccia verde per le mappe adiacenti.


METAR-TAF: